createdAt,value
2023-11-24T00:00:45.143Z,85
2023-11-24T00:02:45.249Z,83
2023-11-24T00:04:48.461Z,82
2023-11-24T00:06:45.557Z,78
2023-11-24T00:08:45.528Z,79
2023-11-24T00:10:48.580Z,76
2023-11-24T00:12:45.763Z,78
2023-11-24T00:14:52.728Z,78
2023-11-24T00:16:45.909Z,76
2023-11-24T00:18:46.041Z,75
2023-11-24T00:20:46.090Z,72
2023-11-24T00:22:46.257Z,71
2023-11-24T00:24:46.327Z,67
2023-11-24T00:26:46.506Z,66
2023-11-24T00:28:46.500Z,65
2023-11-24T00:30:46.694Z,66
2023-11-24T00:32:46.805Z,66
2023-11-24T00:34:46.830Z,67
2023-11-24T00:36:47.112Z,64
2023-11-24T00:38:47.191Z,65
2023-11-24T00:40:47.085Z,64
2023-11-24T00:42:47.196Z,65
2023-11-24T00:44:47.298Z,62
2023-11-24T00:46:47.425Z,62
2023-11-24T00:48:47.530Z,60
2023-11-24T00:50:47.618Z,57
2023-11-24T00:52:47.733Z,57
2023-11-24T00:54:47.984Z,59
2023-11-24T00:56:47.912Z,61
2023-11-24T00:58:48.103Z,60
2023-11-24T01:00:48.253Z,59
2023-11-24T01:02:48.366Z,60
2023-11-24T01:04:48.424Z,58
2023-11-24T01:06:48.430Z,58
2023-11-24T01:08:51.620Z,61
2023-11-24T01:10:56.681Z,61
2023-11-24T01:12:48.688Z,61
2023-11-24T01:14:48.769Z,61
2023-11-24T01:16:48.886Z,59
2023-11-24T01:18:48.991Z,58
2023-11-24T01:20:50.126Z,65
2023-11-24T01:22:53.655Z,67
2023-11-24T01:24:49.322Z,63
2023-11-24T01:26:49.347Z,61
2023-11-24T01:29:03.011Z,61
2023-11-24T01:30:51.083Z,60
2023-11-24T01:32:49.656Z,60
2023-11-24T01:34:49.753Z,62
2023-11-24T01:36:50.144Z,61
2023-11-24T01:38:50.041Z,64
2023-11-24T01:40:50.006Z,62
2023-11-24T01:42:50.215Z,61
2023-11-24T01:44:50.338Z,59
2023-11-24T01:46:50.524Z,57
2023-11-24T01:48:50.543Z,58
2023-11-24T01:50:51.357Z,57
2023-11-24T01:52:50.818Z,55
2023-11-24T01:54:50.881Z,56
2023-11-24T01:56:50.824Z,57
2023-11-24T01:58:50.874Z,56
2023-11-24T02:03:01.258Z,57
2023-11-24T02:04:52.964Z,57
2023-11-24T02:06:51.286Z,58
2023-11-24T02:08:51.291Z,58
2023-11-24T02:10:51.462Z,57
2023-11-24T02:12:51.569Z,59
2023-11-24T02:14:51.739Z,58
2023-11-24T02:16:51.825Z,58
2023-11-24T02:18:51.837Z,58
2023-11-24T02:20:51.852Z,56
2023-11-24T02:22:51.946Z,56
2023-11-24T02:24:52.078Z,55
2023-11-24T02:28:57.361Z,55
2023-11-24T02:36:54.765Z,56
2023-11-24T02:38:52.656Z,58
2023-11-24T02:40:52.906Z,56
2023-11-24T02:42:52.855Z,56
2023-11-24T02:44:52.887Z,56
2023-11-24T02:46:53.020Z,55
2023-11-24T02:48:53.294Z,55
2023-11-24T02:50:53.147Z,56
2023-11-24T02:52:53.272Z,58
2023-11-24T02:54:53.370Z,59
2023-11-24T02:58:53.650Z,59
2023-11-24T03:00:53.633Z,57
2023-11-24T03:02:53.662Z,56
2023-11-24T03:04:56.916Z,57
2023-11-24T03:06:53.904Z,56
2023-11-24T03:08:53.913Z,60
2023-11-24T03:10:54.005Z,57
2023-11-24T03:12:54.284Z,63
2023-11-24T03:14:55.437Z,58
2023-11-24T03:16:54.343Z,60
2023-11-24T03:18:54.411Z,58
2023-11-24T03:20:54.469Z,62
2023-11-24T03:22:55.755Z,58
2023-11-24T03:24:54.729Z,62
2023-11-24T03:26:54.862Z,59
2023-11-24T03:28:54.820Z,63
2023-11-24T03:30:55.028Z,64
2023-11-24T03:32:58.732Z,63
2023-11-24T03:34:55.083Z,60
2023-11-24T03:36:55.209Z,63
2023-11-24T03:38:59.152Z,62
2023-11-24T03:40:55.349Z,60
2023-11-24T03:42:55.567Z,58
2023-11-24T03:44:55.529Z,58
2023-11-24T03:47:01.470Z,58
2023-11-24T03:48:55.744Z,59
2023-11-24T03:50:55.823Z,58
2023-11-24T03:52:55.853Z,59
2023-11-24T03:54:56.020Z,57
2023-11-24T03:56:56.069Z,56
2023-11-24T03:58:56.173Z,58
2023-11-24T04:00:56.295Z,56
2023-11-24T04:02:56.296Z,56
2023-11-24T04:04:56.519Z,55
2023-11-24T04:06:56.565Z,59
2023-11-24T04:08:56.582Z,59
2023-11-24T04:10:59.115Z,63
2023-11-24T04:12:56.934Z,60
2023-11-24T04:14:56.855Z,59
2023-11-24T04:17:01.197Z,58
2023-11-24T04:18:57.253Z,58
2023-11-24T04:21:02.006Z,60
2023-11-24T04:22:57.385Z,59
2023-11-24T04:24:57.381Z,58
2023-11-24T04:26:57.346Z,59
2023-11-24T04:28:57.421Z,57
2023-11-24T04:30:57.625Z,60
2023-11-24T04:32:57.627Z,58
2023-11-24T04:34:57.737Z,59
2023-11-24T04:36:57.921Z,59
2023-11-24T04:39:27.960Z,56
2023-11-24T04:41:28.052Z,56
2023-11-24T04:43:28.154Z,57
2023-11-24T04:49:30.674Z,58
2023-11-24T04:51:28.760Z,57
2023-11-24T04:53:33.245Z,63
2023-11-24T04:55:28.843Z,69
2023-11-24T04:57:29.023Z,62
2023-11-24T04:59:34.441Z,65
2023-11-24T05:01:30.661Z,66
2023-11-24T05:03:35.496Z,74
2023-11-24T05:05:33.830Z,68
2023-11-24T05:07:29.490Z,68
2023-11-24T05:09:29.784Z,61
2023-11-24T05:11:32.304Z,89
2023-11-24T05:13:29.955Z,109
2023-11-24T05:15:30.065Z,107
2023-11-24T05:17:31.286Z,86
2023-11-24T05:19:30.239Z,87
2023-11-24T05:21:30.335Z,77
2023-11-24T05:23:30.386Z,80
2023-11-24T05:25:30.518Z,68
2023-11-24T05:27:30.654Z,71
2023-11-24T05:29:30.696Z,60
2023-11-24T05:31:30.849Z,62
2023-11-24T05:33:31.086Z,66
2023-11-24T05:35:31.038Z,67
2023-11-24T05:37:31.178Z,65
2023-11-24T05:39:31.423Z,66
2023-11-24T05:41:34.743Z,59
2023-11-24T05:43:31.553Z,62
2023-11-24T05:45:35.732Z,62
2023-11-24T05:47:31.871Z,61
2023-11-24T05:49:35.878Z,63
2023-11-24T05:51:32.143Z,58
2023-11-24T05:53:35.020Z,58
2023-11-24T05:55:32.179Z,56
2023-11-24T05:57:34.496Z,56
2023-11-24T05:59:32.392Z,57
2023-11-24T06:01:35.298Z,59
2023-11-24T06:03:32.638Z,59
2023-11-24T06:05:39.533Z,61
2023-11-24T06:07:32.837Z,64
2023-11-24T06:09:35.215Z,67
2023-11-24T06:11:33.059Z,70
2023-11-24T06:13:33.130Z,70
2023-11-24T06:15:33.291Z,67
2023-11-24T06:17:33.449Z,65
2023-11-24T06:19:38.141Z,65
2023-11-24T06:21:36.344Z,63
2023-11-24T06:23:33.908Z,62
2023-11-24T06:25:33.826Z,59
2023-11-24T06:27:33.982Z,59
2023-11-24T06:29:37.028Z,57
2023-11-24T06:31:34.220Z,58
2023-11-24T06:37:34.494Z,57
2023-11-24T06:39:37.080Z,56
2023-11-24T06:41:34.828Z,58
2023-11-24T06:43:37.649Z,61
2023-11-24T06:45:35.098Z,77
2023-11-24T06:47:35.314Z,96
2023-11-24T06:49:35.247Z,100
2023-11-24T06:51:35.334Z,107
2023-11-24T06:53:35.400Z,83
2023-11-24T06:55:35.485Z,120
2023-11-24T06:57:35.778Z,168
2023-11-24T06:59:35.772Z,182
2023-11-24T07:01:40.836Z,187
2023-11-24T07:03:37.192Z,180
2023-11-24T07:05:35.994Z,162
2023-11-24T07:07:36.294Z,115
2023-11-24T07:09:36.241Z,144
2023-11-24T07:11:41.871Z,138
2023-11-24T07:13:41.263Z,88
2023-11-24T07:19:38.522Z,115
2023-11-24T07:23:37.121Z,76
2023-11-24T07:25:37.249Z,78
2023-11-24T07:27:37.161Z,89
2023-11-24T07:29:37.288Z,72
2023-11-24T07:31:37.369Z,66
2023-11-24T07:33:37.590Z,65
2023-11-24T07:35:38.040Z,69
2023-11-24T07:37:37.712Z,71
2023-11-24T07:39:37.847Z,70
2023-11-24T07:41:38.323Z,64
2023-11-24T07:45:46.234Z,88
2023-11-24T07:47:39.382Z,90
2023-11-24T07:49:39.520Z,68
2023-11-24T07:51:41.204Z,60
2023-11-24T07:53:48.695Z,62
2023-11-24T07:55:38.666Z,60
2023-11-24T07:57:38.786Z,64
2023-11-24T07:59:38.845Z,70
2023-11-24T08:01:39.017Z,68
2023-11-24T08:03:39.148Z,74
2023-11-24T08:05:39.134Z,80
2023-11-24T08:07:39.249Z,69
2023-11-24T08:09:39.397Z,67
2023-11-24T08:11:39.459Z,61
2023-11-24T08:13:45.053Z,65
2023-11-24T08:15:44.099Z,64
2023-11-24T08:17:39.817Z,60
2023-11-24T08:19:39.886Z,64
2023-11-24T08:21:40.031Z,72
2023-11-24T08:23:42.563Z,70
2023-11-24T08:25:48.712Z,79
2023-11-24T08:27:40.576Z,82
2023-11-24T08:29:40.440Z,79
2023-11-24T08:31:43.241Z,75
2023-11-24T08:33:47.364Z,75
2023-11-24T08:35:40.849Z,75
2023-11-24T08:37:40.820Z,76
2023-11-24T08:39:40.967Z,79
2023-11-24T08:41:47.311Z,76
2023-11-24T08:43:41.151Z,73
2023-11-24T08:45:41.304Z,71
2023-11-24T08:47:41.496Z,66
2023-11-24T08:49:41.541Z,64
2023-11-24T08:51:41.597Z,57
2023-11-24T08:53:41.635Z,54
2023-11-24T08:55:47.553Z,55
2023-11-24T08:57:41.888Z,58
2023-11-24T08:59:41.982Z,59
2023-11-24T09:01:42.086Z,61
2023-11-24T09:03:43.083Z,58
2023-11-24T09:05:42.331Z,56
2023-11-24T09:07:42.466Z,54
2023-11-24T09:09:42.590Z,58
2023-11-24T09:11:44.748Z,56
2023-11-24T09:13:42.655Z,61
2023-11-24T09:15:45.674Z,71
2023-11-24T09:19:43.358Z,109
2023-11-24T09:21:48.081Z,104
2023-11-24T09:23:43.253Z,115
2023-11-24T09:25:48.733Z,126
2023-11-24T09:27:47.564Z,126
2023-11-24T09:29:43.461Z,112
2023-11-24T09:31:43.567Z,115
2023-11-24T09:33:47.977Z,112
2023-11-24T09:35:43.871Z,109
2023-11-24T09:37:43.867Z,107
2023-11-24T09:39:43.989Z,102
2023-11-24T09:41:44.028Z,98
2023-11-24T09:43:44.136Z,99
2023-11-24T09:45:44.279Z,96
2023-11-24T09:47:44.412Z,94
2023-11-24T09:49:44.429Z,93
2023-11-24T09:51:44.545Z,94
2023-11-24T09:53:44.631Z,93
2023-11-24T09:55:44.856Z,81
2023-11-24T09:57:45.032Z,75
2023-11-24T09:59:44.960Z,72
2023-11-24T10:01:45.144Z,71
2023-11-24T10:03:45.228Z,72
2023-11-24T10:05:45.262Z,76
2023-11-24T10:07:47.796Z,73
2023-11-24T10:09:45.490Z,75
2023-11-24T10:11:45.546Z,74
2023-11-24T10:13:50.814Z,78
2023-11-24T10:15:50.708Z,79
2023-11-24T10:19:47.957Z,71
2023-11-24T10:23:51.179Z,86
2023-11-24T10:25:51.138Z,85
2023-11-24T10:27:49.103Z,84
2023-11-24T10:29:46.363Z,87
2023-11-24T10:31:46.426Z,87
2023-11-24T10:33:46.670Z,87
2023-11-24T10:35:46.625Z,89
2023-11-24T10:37:46.756Z,92
2023-11-24T10:39:47.108Z,92
2023-11-24T10:41:51.970Z,91
2023-11-24T10:43:46.990Z,90
2023-11-24T10:45:47.129Z,89
2023-11-24T10:47:47.219Z,84
2023-11-24T10:49:47.281Z,81
2023-11-24T10:51:47.491Z,76
2023-11-24T10:53:47.443Z,79
2023-11-24T10:55:47.636Z,71
2023-11-24T10:57:47.783Z,73
2023-11-24T10:59:47.711Z,73
2023-11-24T11:01:47.959Z,75
2023-11-24T11:03:47.955Z,72
2023-11-24T11:05:47.998Z,70
2023-11-24T11:07:48.041Z,69
2023-11-24T11:09:49.455Z,66
2023-11-24T11:11:55.486Z,71
2023-11-24T11:13:48.322Z,97
2023-11-24T11:15:48.384Z,99
2023-11-24T11:17:48.480Z,98
2023-11-24T11:19:48.544Z,114
2023-11-24T11:21:55.183Z,109
2023-11-24T11:23:50.703Z,94
2023-11-24T11:25:53.775Z,97
2023-11-24T11:27:49.011Z,83
2023-11-24T11:29:49.024Z,80
2023-11-24T11:31:49.163Z,81
2023-11-24T11:33:49.348Z,95
2023-11-24T11:35:52.012Z,94
2023-11-24T11:37:49.409Z,93
2023-11-24T11:39:49.540Z,84
2023-11-24T11:41:49.553Z,89
2023-11-24T11:43:51.220Z,88
2023-11-24T11:45:49.798Z,111
2023-11-24T11:47:49.847Z,94
2023-11-24T11:49:49.904Z,97
2023-11-24T11:51:50.030Z,96
2023-11-24T11:53:50.095Z,98
2023-11-24T11:55:50.177Z,101
2023-11-24T11:57:50.245Z,100
2023-11-24T11:59:57.877Z,88
2023-11-24T12:01:55.526Z,91
2023-11-24T12:05:51.921Z,88
2023-11-24T12:07:55.827Z,94
2023-11-24T12:09:55.759Z,103
2023-11-24T12:12:00.803Z,99
2023-11-24T12:13:50.905Z,98
2023-11-24T12:15:51.009Z,102
2023-11-24T12:17:51.056Z,101
2023-11-24T12:20:28.038Z,103
2023-11-24T12:22:21.284Z,99
2023-11-24T12:24:21.489Z,97
2023-11-24T12:26:21.604Z,117
2023-11-24T12:28:25.817Z,136
2023-11-24T12:30:21.740Z,142
2023-11-24T12:32:21.983Z,146
2023-11-24T12:36:26.382Z,130
2023-11-24T12:38:22.193Z,124
2023-11-24T12:40:22.387Z,127
2023-11-24T12:42:22.416Z,123
2023-11-24T12:44:22.545Z,120
2023-11-24T12:46:22.934Z,121
2023-11-24T12:48:27.758Z,124
2023-11-24T12:50:22.894Z,119
2023-11-24T12:52:27.954Z,165
2023-11-24T12:54:23.108Z,151
2023-11-24T12:56:26.233Z,155
2023-11-24T12:58:23.433Z,147
2023-11-24T13:00:23.593Z,130
2023-11-24T13:02:28.053Z,120
2023-11-24T13:04:23.739Z,112
2023-11-24T13:06:23.883Z,113
2023-11-24T13:08:23.887Z,116
2023-11-24T13:10:23.997Z,115
2023-11-24T13:12:24.171Z,110
2023-11-24T13:14:34.171Z,110
2023-11-24T13:16:27.000Z,117
2023-11-24T13:18:24.402Z,123
2023-11-24T13:20:24.510Z,161
2023-11-24T13:22:26.822Z,118
2023-11-24T13:24:24.886Z,100
2023-11-24T13:26:24.951Z,87
2023-11-24T13:28:25.051Z,80
2023-11-24T13:30:25.201Z,83
2023-11-24T13:32:25.305Z,82
2023-11-24T13:34:25.534Z,84
2023-11-24T13:36:25.455Z,87
2023-11-24T13:38:28.079Z,94
2023-11-24T13:40:28.694Z,96
2023-11-24T13:42:25.761Z,92
2023-11-24T13:46:28.723Z,101
2023-11-24T13:48:30.169Z,133
2023-11-24T13:50:31.940Z,149
2023-11-24T13:52:30.132Z,144
2023-11-24T13:54:26.997Z,136
2023-11-24T13:56:26.458Z,140
2023-11-24T13:58:35.162Z,140
2023-11-24T14:00:26.676Z,144
2023-11-24T14:02:27.010Z,149
2023-11-24T14:04:26.941Z,142
2023-11-24T14:06:27.212Z,151
2023-11-24T14:08:27.115Z,142
2023-11-24T14:12:27.512Z,142
2023-11-24T14:14:27.444Z,143
2023-11-24T14:16:28.901Z,148
2023-11-24T14:18:27.603Z,147
2023-11-24T14:20:27.732Z,142
2023-11-24T14:22:33.143Z,154
2023-11-24T14:24:31.982Z,145
2023-11-24T14:26:28.020Z,156
2023-11-24T14:28:28.397Z,140
2023-11-24T14:30:29.300Z,131
2023-11-24T14:32:28.393Z,119
2023-11-24T14:34:32.257Z,134
2023-11-24T14:36:28.583Z,145
2023-11-24T14:38:28.661Z,120
2023-11-24T14:40:32.352Z,109
2023-11-24T14:42:29.471Z,122
2023-11-24T14:44:29.061Z,119
2023-11-24T14:46:29.166Z,111
2023-11-24T14:48:29.199Z,103
2023-11-24T14:50:29.330Z,103
2023-11-24T14:54:29.530Z,107
2023-11-24T14:56:29.607Z,108
2023-11-24T14:58:34.035Z,94
2023-11-24T15:00:29.897Z,87
2023-11-24T15:02:29.978Z,88
2023-11-24T15:04:30.095Z,86
2023-11-24T15:06:30.212Z,90
2023-11-24T15:08:30.210Z,94
2023-11-24T15:10:30.527Z,92
2023-11-24T15:12:30.556Z,99
2023-11-24T15:14:30.625Z,106
2023-11-24T15:16:30.700Z,118
2023-11-24T15:18:32.517Z,127
2023-11-24T15:20:30.826Z,142
2023-11-24T15:22:30.941Z,136
2023-11-24T15:24:31.044Z,143
2023-11-24T15:26:31.122Z,137
2023-11-24T15:28:31.452Z,135
2023-11-24T15:30:31.397Z,129
2023-11-24T15:32:31.608Z,123
2023-11-24T15:34:31.652Z,110
2023-11-24T15:36:31.754Z,110
2023-11-24T15:38:31.766Z,101
2023-11-24T15:40:31.844Z,96
2023-11-24T15:42:35.663Z,88
2023-11-24T15:44:31.974Z,92
2023-11-24T15:46:32.159Z,84
2023-11-24T15:48:35.511Z,88
2023-11-24T15:50:32.298Z,99
2023-11-24T15:52:32.548Z,95
2023-11-24T15:54:39.151Z,100
2023-11-24T15:56:32.758Z,93
2023-11-24T15:58:32.653Z,110
2023-11-24T16:00:40.351Z,109
2023-11-24T16:02:32.898Z,104
2023-11-24T16:04:33.029Z,95
2023-11-24T16:06:33.059Z,78
2023-11-24T16:08:33.439Z,71
2023-11-24T16:10:33.318Z,64
2023-11-24T16:12:33.452Z,53
2023-11-24T16:14:33.550Z,53
2023-11-24T16:16:33.657Z,60
2023-11-24T16:18:35.721Z,58
2023-11-24T16:20:34.584Z,62
2023-11-24T16:22:43.295Z,59
2023-11-24T16:24:36.285Z,58
2023-11-24T16:26:38.973Z,58
2023-11-24T16:32:38.100Z,73
2023-11-24T16:34:34.348Z,69
2023-11-24T16:36:34.471Z,63
2023-11-24T16:40:39.753Z,56
2023-11-24T16:42:34.734Z,57
2023-11-24T16:46:39.961Z,59
2023-11-24T16:48:37.870Z,56
2023-11-24T16:50:35.062Z,55
2023-11-24T16:52:36.506Z,45
2023-11-24T16:54:39.796Z,42
2023-11-24T16:56:35.341Z,38
2023-11-24T16:58:35.465Z,38
2023-11-24T17:00:35.592Z,39
2023-11-24T17:02:35.817Z,36
2023-11-24T17:04:35.890Z,33
2023-11-24T17:06:35.893Z,32
2023-11-24T17:10:36.057Z,34
2023-11-24T17:12:36.089Z,36
2023-11-24T17:14:36.182Z,38
2023-11-24T17:16:36.325Z,37
2023-11-24T17:18:36.464Z,36
2023-11-24T17:20:36.467Z,37
2023-11-24T17:22:40.050Z,37
2023-11-24T17:24:36.651Z,35
2023-11-24T17:26:36.799Z,30
2023-11-24T17:28:37.649Z,28
2023-11-24T17:30:36.924Z,25
2023-11-24T17:32:36.984Z,25
2023-11-24T17:34:37.710Z,24
2023-11-24T17:36:37.147Z,29
2023-11-24T17:38:37.250Z,29
2023-11-24T17:40:37.324Z,24
2023-11-24T17:42:37.434Z,19
2023-11-24T17:44:37.600Z,16
2023-11-24T17:46:39.781Z,17
2023-11-24T17:48:37.814Z,17
2023-11-24T17:51:07.959Z,20
2023-11-24T17:53:09.851Z,20
2023-11-24T17:55:13.120Z,18
2023-11-24T17:57:08.542Z,20
2023-11-24T17:59:13.280Z,21
2023-11-24T18:01:13.228Z,21
2023-11-24T18:03:11.629Z,22
2023-11-24T18:05:08.640Z,22
2023-11-24T18:07:12.240Z,22
2023-11-24T18:09:08.992Z,22
2023-11-24T18:11:09.958Z,21
2023-11-24T18:13:09.269Z,25
2023-11-24T18:15:18.192Z,26
2023-11-24T18:17:09.859Z,23
2023-11-24T18:19:10.004Z,23
2023-11-24T18:21:14.463Z,23
2023-11-24T18:23:14.623Z,25
2023-11-24T18:25:18.551Z,25
2023-11-24T18:27:09.942Z,28
2023-11-24T18:29:14.916Z,26
2023-11-24T18:31:11.086Z,38
2023-11-24T18:33:11.313Z,87
2023-11-24T18:35:10.377Z,33
2023-11-24T18:37:13.621Z,22
2023-11-24T18:39:16.007Z,21
2023-11-24T18:41:10.752Z,23
2023-11-24T18:43:10.813Z,26
2023-11-24T18:45:11.807Z,28
2023-11-24T18:49:12.370Z,43
2023-11-24T18:51:11.203Z,41
2023-11-24T18:53:14.897Z,29
2023-11-24T18:55:14.869Z,27
2023-11-24T18:57:17.447Z,23
2023-11-24T18:59:12.855Z,20
2023-11-24T19:01:11.832Z,15
2023-11-24T19:03:15.970Z,13
2023-11-24T19:05:13.977Z,18
2023-11-24T19:07:14.141Z,23
2023-11-24T19:09:15.479Z,18
2023-11-24T19:11:14.225Z,12
2023-11-24T19:13:12.439Z,11
2023-11-24T19:15:12.499Z,11
2023-11-24T19:17:13.127Z,11
2023-11-24T19:19:13.728Z,12
2023-11-24T19:21:16.232Z,11
2023-11-24T19:23:12.818Z,13
2023-11-24T19:25:19.638Z,10
2023-11-24T19:27:13.134Z,10
2023-11-24T19:29:15.979Z,11
2023-11-24T19:31:13.342Z,12
2023-11-24T19:33:13.331Z,14
2023-11-24T19:35:13.420Z,13
2023-11-24T19:37:20.585Z,12
2023-11-24T19:39:13.736Z,9
2023-11-24T19:41:13.846Z,10
2023-11-24T19:43:18.875Z,9
2023-11-24T19:49:14.335Z,8
2023-11-24T19:51:14.376Z,8
2023-11-24T19:53:19.420Z,8
2023-11-24T19:57:14.697Z,9
2023-11-24T19:59:18.906Z,11
2023-11-24T20:01:16.819Z,10
2023-11-24T20:03:19.267Z,10
2023-11-24T20:05:15.165Z,13
2023-11-24T20:07:24.950Z,9
2023-11-24T20:09:15.240Z,11
2023-11-24T20:11:15.344Z,12
2023-11-24T20:13:15.325Z,10
2023-11-24T20:17:20.641Z,12
2023-11-24T20:19:18.203Z,8
2023-11-24T20:21:15.736Z,8
2023-11-24T20:25:15.970Z,7
2023-11-24T20:27:21.853Z,6
2023-11-24T20:29:21.065Z,6
2023-11-24T20:31:18.554Z,6
2023-11-24T20:33:16.493Z,6
2023-11-24T20:35:19.367Z,5
2023-11-24T20:37:16.613Z,6
2023-11-24T20:39:22.591Z,5
2023-11-24T20:43:21.633Z,6
2023-11-24T20:45:24.229Z,6
2023-11-24T20:49:22.185Z,7
2023-11-24T20:51:19.535Z,6
2023-11-24T20:55:22.406Z,6
2023-11-24T20:57:20.178Z,8
2023-11-24T20:59:24.416Z,8
2023-11-24T21:01:17.704Z,10
2023-11-24T21:03:23.594Z,13
2023-11-24T21:05:21.320Z,14
2023-11-24T21:07:24.515Z,20
2023-11-24T21:09:18.326Z,11
2023-11-24T21:11:22.413Z,6
2023-11-24T21:13:18.198Z,6
2023-11-24T21:17:18.738Z,7
2023-11-24T21:19:22.502Z,8
2023-11-24T21:21:18.584Z,5
2023-11-24T21:23:18.815Z,4
2023-11-24T21:25:19.115Z,4
2023-11-24T21:27:18.938Z,4
2023-11-24T21:29:18.910Z,7
2023-11-24T21:31:19.150Z,5
2023-11-24T21:33:20.302Z,4
2023-11-24T21:35:19.321Z,7
2023-11-24T21:37:19.501Z,7
2023-11-24T21:39:21.042Z,7
2023-11-24T21:41:19.589Z,4
2023-11-24T21:43:23.668Z,5
2023-11-24T21:47:21.829Z,5
2023-11-24T21:49:19.907Z,7
2023-11-24T21:51:25.890Z,3
2023-11-24T21:53:22.950Z,3
2023-11-24T21:55:25.465Z,4
2023-11-24T21:59:20.672Z,3
2023-11-24T22:03:25.685Z,3
2023-11-24T22:05:20.587Z,3
2023-11-24T22:07:27.134Z,3
2023-11-24T22:09:22.339Z,4
2023-11-24T22:11:20.836Z,5
2023-11-24T22:17:25.593Z,6
2023-11-24T22:19:21.223Z,5
2023-11-24T22:21:21.497Z,4
2023-11-24T22:25:22.543Z,4
2023-11-24T22:27:22.589Z,4
2023-11-24T22:29:21.642Z,5
2023-11-24T22:35:21.924Z,7
2023-11-24T22:37:22.581Z,5
2023-11-24T22:39:23.940Z,4
2023-11-24T22:41:25.575Z,3
2023-11-24T22:43:22.416Z,3
2023-11-24T22:45:26.147Z,3
2023-11-24T22:47:22.579Z,4
2023-11-24T22:49:30.469Z,4
2023-11-24T22:51:29.850Z,5
2023-11-24T22:53:23.725Z,3
2023-11-24T22:57:28.473Z,3
2023-11-24T22:59:24.056Z,3
2023-11-24T23:01:23.188Z,3
2023-11-24T23:03:23.239Z,3
2023-11-24T23:05:23.431Z,3
2023-11-24T23:09:33.233Z,3
2023-11-24T23:11:25.987Z,4
2023-11-24T23:13:23.649Z,3
2023-11-24T23:15:25.822Z,6
2023-11-24T23:17:26.739Z,6
2023-11-24T23:19:24.800Z,5
2023-11-24T23:21:24.518Z,6
2023-11-24T23:23:24.049Z,6
2023-11-24T23:25:24.275Z,9
2023-11-24T23:27:27.591Z,8
2023-11-24T23:29:24.292Z,4
2023-11-24T23:31:27.853Z,4
2023-11-24T23:33:24.631Z,5
2023-11-24T23:35:24.542Z,3
2023-11-24T23:37:27.534Z,2
2023-11-24T23:39:54.881Z,2
2023-11-24T23:43:55.121Z,1
2023-11-24T23:45:56.878Z,2
2023-11-24T23:47:55.296Z,2
2023-11-24T23:49:57.735Z,2
2023-11-24T23:51:55.469Z,3
2023-11-24T23:53:55.583Z,5
2023-11-24T23:55:55.703Z,7
2023-11-24T23:57:55.805Z,7
2023-11-24T23:59:55.925Z,4
